sim
Sign-in with your pilot id or email,
or register
Callsign
Passwort

Schedule Details

Flight Number: RYR1371 (2)
Departure: Naples Airport (LIRN) at 08:35
Arrival: Thessaloniki International Airport (LGTS) at 10:15
Route: Ryanair Passenger Schedule. Enter filed route here before submitting Pirep.

Weather Information
Getting current METAR information for LIRN 211750Z 31007KT 240V330 CAVOK 27/19 Q1017 NOSIG
Getting current METAR information for LGTS 211750Z 16005KT CAVOK 29/13 Q1016 NOSIG

Schedule Frequency

Route Map